sensor_id;sensor_type;location;lat;lon;timestamp;temperature;humidity
19332;DHT22;9800;52.056;4.466;2024-03-23T00:54:27;6.00;1.40
19332;DHT22;9800;52.056;4.466;2024-03-23T00:56:53;5.80;1.40
19332;DHT22;9800;52.056;4.466;2024-03-23T00:59:23;5.80;1.40
19332;DHT22;9800;52.056;4.466;2024-03-23T01:01:54;5.80;1.40
19332;DHT22;9800;52.056;4.466;2024-03-23T01:04:20;5.60;1.40
19332;DHT22;9800;52.056;4.466;2024-03-23T01:09:14;5.50;1.40
19332;DHT22;9800;52.056;4.466;2024-03-23T01:11:40;5.40;1.40
19332;DHT22;9800;52.056;4.466;2024-03-23T01:16:37;5.10;1.40
19332;DHT22;9800;52.056;4.466;2024-03-23T01:19:03;5.10;1.40
19332;DHT22;9800;52.056;4.466;2024-03-23T01:23:59;5.00;1.40
19332;DHT22;9800;52.056;4.466;2024-03-23T01:31:31;4.80;1.40
19332;DHT22;9800;52.056;4.466;2024-03-23T01:34:00;4.70;1.40
19332;DHT22;9800;52.056;4.466;2024-03-23T01:36:26;4.70;1.40
19332;DHT22;9800;52.056;4.466;2024-03-23T01:38:56;4.70;1.40
19332;DHT22;9800;52.056;4.466;2024-03-23T01:41:23;4.70;1.40
19332;DHT22;9800;52.056;4.466;2024-03-23T01:46:17;4.80;1.40
19332;DHT22;9800;52.056;4.466;2024-03-23T01:53:45;4.80;1.40
19332;DHT22;9800;52.056;4.466;2024-03-23T01:56:12;4.80;1.40
19332;DHT22;9800;52.056;4.466;2024-03-23T01:58:38;4.70;1.40
19332;DHT22;9800;52.056;4.466;2024-03-23T02:01:04;4.50;1.40
19332;DHT22;9800;52.056;4.466;2024-03-23T02:03:30;4.50;1.40
19332;DHT22;9800;52.056;4.466;2024-03-23T02:05:56;4.40;1.40
19332;DHT22;9800;52.056;4.466;2024-03-23T02:21:22;4.60;1.40
19332;DHT22;9800;52.056;4.466;2024-03-23T02:26:20;4.60;1.40
19332;DHT22;9800;52.056;4.466;2024-03-23T02:38:41;4.50;1.40
19332;DHT22;9800;52.056;4.466;2024-03-23T02:43:42;4.40;1.40
19332;DHT22;9800;52.056;4.466;2024-03-23T02:48:38;4.60;1.40
19332;DHT22;9800;52.056;4.466;2024-03-23T03:11:05;4.60;1.40
19332;DHT22;9800;52.056;4.466;2024-03-23T03:33:34;5.00;1.40
19332;DHT22;9800;52.056;4.466;2024-03-23T04:08:38;4.80;1.40
19332;DHT22;9800;52.056;4.466;2024-03-23T04:13:46;4.70;1.40
19332;DHT22;9800;52.056;4.466;2024-03-23T04:16:12;4.50;1.40
19332;DHT22;9800;52.056;4.466;2024-03-23T04:21:08;4.50;1.40
19332;DHT22;9800;52.056;4.466;2024-03-23T04:31:06;4.60;1.40
19332;DHT22;9800;52.056;4.466;2024-03-23T04:58:22;5.40;1.40
19332;DHT22;9800;52.056;4.466;2024-03-23T06:01:02;5.80;99.90
19332;DHT22;9800;52.056;4.466;2024-03-23T06:10:56;6.00;99.90
19332;DHT22;9800;52.056;4.466;2024-03-23T06:13:22;5.80;99.90
19332;DHT22;9800;52.056;4.466;2024-03-23T06:28:33;5.90;99.90
19332;DHT22;9800;52.056;4.466;2024-03-23T07:31:05;7.40;99.90
19332;DHT22;9800;52.056;4.466;2024-03-23T07:36:02;7.10;99.90
19332;DHT22;9800;52.056;4.466;2024-03-23T07:38:28;6.90;99.90
19332;DHT22;9800;52.056;4.466;2024-03-23T07:41:05;6.90;99.90
19332;DHT22;9800;52.056;4.466;2024-03-23T07:48:33;7.40;99.90
19332;DHT22;9800;52.056;4.466;2024-03-23T07:50:59;7.50;99.90
19332;DHT22;9800;52.056;4.466;2024-03-23T07:53:26;7.60;99.90
19332;DHT22;9800;52.056;4.466;2024-03-23T07:55:52;7.70;99.90
19332;DHT22;9800;52.056;4.466;2024-03-23T07:58:18;8.20;99.90
19332;DHT22;9800;52.056;4.466;2024-03-23T08:00:44;8.40;99.90
19332;DHT22;9800;52.056;4.466;2024-03-23T08:03:10;8.40;99.90
19332;DHT22;9800;52.056;4.466;2024-03-23T08:05:39;8.40;99.90
19332;DHT22;9800;52.056;4.466;2024-03-23T08:08:05;8.60;99.90
19332;DHT22;9800;52.056;4.466;2024-03-23T08:10:31;8.80;99.90
19332;DHT22;9800;52.056;4.466;2024-03-23T08:12:57;8.70;99.90
19332;DHT22;9800;52.056;4.466;2024-03-23T08:15:23;8.60;99.90
19332;DHT22;9800;52.056;4.466;2024-03-23T08:17:49;8.70;99.90
19332;DHT22;9800;52.056;4.466;2024-03-23T08:20:15;8.90;99.90
19332;DHT22;9800;52.056;4.466;2024-03-23T08:22:43;8.90;99.90
19332;DHT22;9800;52.056;4.466;2024-03-23T08:25:09;9.20;99.90
19332;DHT22;9800;52.056;4.466;2024-03-23T08:27:36;9.60;99.90
19332;DHT22;9800;52.056;4.466;2024-03-23T08:30:02;9.90;99.90
19332;DHT22;9800;52.056;4.466;2024-03-23T08:32:28;9.60;99.90
19332;DHT22;9800;52.056;4.466;2024-03-23T08:34:54;9.30;99.90
19332;DHT22;9800;52.056;4.466;2024-03-23T08:37:20;9.10;99.90
19332;DHT22;9800;52.056;4.466;2024-03-23T08:39:49;9.00;99.90
19332;DHT22;9800;52.056;4.466;2024-03-23T08:42:17;9.50;99.90
19332;DHT22;9800;52.056;4.466;2024-03-23T08:44:43;9.90;99.90
19332;DHT22;9800;52.056;4.466;2024-03-23T08:47:08;10.00;99.90
19332;DHT22;9800;52.056;4.466;2024-03-23T08:49:34;9.60;99.90
19332;DHT22;9800;52.056;4.466;2024-03-23T08:54:30;9.40;99.90
19332;DHT22;9800;52.056;4.466;2024-03-23T08:56:58;9.40;99.90
19332;DHT22;9800;52.056;4.466;2024-03-23T08:59:24;9.70;99.90
19332;DHT22;9800;52.056;4.466;2024-03-23T09:01:50;11.10;99.80
19332;DHT22;9800;52.056;4.466;2024-03-23T09:04:16;12.00;93.40
19332;DHT22;9800;52.056;4.466;2024-03-23T09:06:42;12.60;68.00
19332;DHT22;9800;52.056;4.466;2024-03-23T09:09:08;12.40;56.00
19332;DHT22;9800;52.056;4.466;2024-03-23T09:11:34;11.70;69.50
19332;DHT22;9800;52.056;4.466;2024-03-23T09:14:02;11.00;83.60
19332;DHT22;9800;52.056;4.466;2024-03-23T09:16:28;10.30;83.60
19332;DHT22;9800;52.056;4.466;2024-03-23T09:18:54;10.10;90.60
19332;DHT22;9800;52.056;4.466;2024-03-23T09:21:20;9.80;90.00
19332;DHT22;9800;52.056;4.466;2024-03-23T09:23:47;10.20;98.20
19332;DHT22;9800;52.056;4.466;2024-03-23T09:26:14;10.40;86.90
19332;DHT22;9800;52.056;4.466;2024-03-23T09:28:39;10.80;76.20
19332;DHT22;9800;52.056;4.466;2024-03-23T09:31:08;11.80;76.30
19332;DHT22;9800;52.056;4.466;2024-03-23T09:33:34;13.30;64.20
19332;DHT22;9800;52.056;4.466;2024-03-23T09:36:02;14.30;50.30
19332;DHT22;9800;52.056;4.466;2024-03-23T09:38:29;15.70;35.30
19332;DHT22;9800;52.056;4.466;2024-03-23T09:40:57;16.20;14.80
19332;DHT22;9800;52.056;4.466;2024-03-23T09:43:23;15.80;14.00
19332;DHT22;9800;52.056;4.466;2024-03-23T09:45:49;14.10;18.50
19332;DHT22;9800;52.056;4.466;2024-03-23T09:48:18;13.10;31.60
19332;DHT22;9800;52.056;4.466;2024-03-23T09:50:45;12.50;47.80
19332;DHT22;9800;52.056;4.466;2024-03-23T09:53:11;13.10;42.30
19332;DHT22;9800;52.056;4.466;2024-03-23T09:55:38;14.00;31.80
19332;DHT22;9800;52.056;4.466;2024-03-23T09:58:04;14.00;30.70
19332;DHT22;9800;52.056;4.466;2024-03-23T10:00:30;13.90;27.50
19332;DHT22;9800;52.056;4.466;2024-03-23T10:02:57;14.40;26.20
19332;DHT22;9800;52.056;4.466;2024-03-23T10:05:26;14.20;27.00
19332;DHT22;9800;52.056;4.466;2024-03-23T10:07:52;13.30;30.40
19332;DHT22;9800;52.056;4.466;2024-03-23T10:10:18;12.50;35.80
19332;DHT22;9800;52.056;4.466;2024-03-23T10:12:45;11.70;49.10
19332;DHT22;9800;52.056;4.466;2024-03-23T10:15:15;11.40;53.40
19332;DHT22;9800;52.056;4.466;2024-03-23T10:17:43;12.00;54.30
19332;DHT22;9800;52.056;4.466;2024-03-23T10:20:10;13.00;36.50
19332;DHT22;9800;52.056;4.466;2024-03-23T10:22:39;13.20;35.60
19332;DHT22;9800;52.056;4.466;2024-03-23T10:25:08;13.10;36.50
19332;DHT22;9800;52.056;4.466;2024-03-23T10:27:34;12.80;34.20
19332;DHT22;9800;52.056;4.466;2024-03-23T10:30:07;12.90;32.80
19332;DHT22;9800;52.056;4.466;2024-03-23T10:32:34;14.10;30.90
19332;DHT22;9800;52.056;4.466;2024-03-23T10:35:13;17.00;16.40
19332;DHT22;9800;52.056;4.466;2024-03-23T10:37:42;17.10;7.50
19332;DHT22;9800;52.056;4.466;2024-03-23T10:40:10;17.90;3.10
19332;DHT22;9800;52.056;4.466;2024-03-23T10:42:37;17.60;2.40
19332;DHT22;9800;52.056;4.466;2024-03-23T10:45:04;18.60;1.00
19332;DHT22;9800;52.056;4.466;2024-03-23T10:47:30;18.50;1.00
19332;DHT22;9800;52.056;4.466;2024-03-23T10:49:56;18.80;1.00
19332;DHT22;9800;52.056;4.466;2024-03-23T10:52:22;17.80;1.00
19332;DHT22;9800;52.056;4.466;2024-03-23T10:54:51;16.00;1.00
19332;DHT22;9800;52.056;4.466;2024-03-23T10:57:17;15.20;1.00
19332;DHT22;9800;52.056;4.466;2024-03-23T10:59:44;14.20;6.80
19332;DHT22;9800;52.056;4.466;2024-03-23T11:02:18;13.00;14.30
19332;DHT22;9800;52.056;4.466;2024-03-23T11:04:44;13.40;19.80
19332;DHT22;9800;52.056;4.466;2024-03-23T11:09:53;13.50;12.50
19332;DHT22;9800;52.056;4.466;2024-03-23T11:12:29;13.50;7.60
19332;DHT22;9800;52.056;4.466;2024-03-23T11:14:57;13.40;10.00
19332;DHT22;9800;52.056;4.466;2024-03-23T11:17:24;13.60;10.40
19332;DHT22;9800;52.056;4.466;2024-03-23T11:19:53;14.10;6.40
19332;DHT22;9800;52.056;4.466;2024-03-23T11:25:08;13.40;10.90
19332;DHT22;9800;52.056;4.466;2024-03-23T11:27:37;12.60;12.50
19332;DHT22;9800;52.056;4.466;2024-03-23T11:30:13;13.40;15.70
19332;DHT22;9800;52.056;4.466;2024-03-23T11:32:40;14.00;9.20
19332;DHT22;9800;52.056;4.466;2024-03-23T11:35:06;13.20;12.80
19332;DHT22;9800;52.056;4.466;2024-03-23T11:37:32;12.60;11.40
19332;DHT22;9800;52.056;4.466;2024-03-23T11:39:58;12.70;13.80
19332;DHT22;9800;52.056;4.466;2024-03-23T11:42:26;13.80;8.20
19332;DHT22;9800;52.056;4.466;2024-03-23T11:44:52;14.20;3.30
19332;DHT22;9800;52.056;4.466;2024-03-23T11:47:19;13.30;8.00
19332;DHT22;9800;52.056;4.466;2024-03-23T11:49:45;14.30;4.60
19332;DHT22;9800;52.056;4.466;2024-03-23T11:52:14;15.20;1.00
19332;DHT22;9800;52.056;4.466;2024-03-23T11:54:41;15.40;1.00
19332;DHT22;9800;52.056;4.466;2024-03-23T11:59:40;16.60;1.00
19332;DHT22;9800;52.056;4.466;2024-03-23T12:02:06;16.90;1.00
19332;DHT22;9800;52.056;4.466;2024-03-23T12:04:33;15.50;1.00
19332;DHT22;9800;52.056;4.466;2024-03-23T12:07:11;15.80;1.00
19332;DHT22;9800;52.056;4.466;2024-03-23T12:09:38;14.70;1.00
19332;DHT22;9800;52.056;4.466;2024-03-23T12:12:08;15.20;1.00
19332;DHT22;9800;52.056;4.466;2024-03-23T12:14:39;15.40;1.00
19332;DHT22;9800;52.056;4.466;2024-03-23T12:17:13;14.50;1.00
19332;DHT22;9800;52.056;4.466;2024-03-23T12:19:39;13.50;9.90
19332;DHT22;9800;52.056;4.466;2024-03-23T12:22:05;10.20;54.90
19332;DHT22;9800;52.056;4.466;2024-03-23T12:24:31;8.20;99.90
19332;DHT22;9800;52.056;4.466;2024-03-23T12:26:59;7.50;99.90
19332;DHT22;9800;52.056;4.466;2024-03-23T12:29:26;6.70;99.90
19332;DHT22;9800;52.056;4.466;2024-03-23T12:31:54;6.00;99.90
19332;DHT22;9800;52.056;4.466;2024-03-23T12:34:20;6.10;99.90
19332;DHT22;9800;52.056;4.466;2024-03-23T12:36:46;6.40;99.90
19332;DHT22;9800;52.056;4.466;2024-03-23T12:39:12;7.10;99.90
19332;DHT22;9800;52.056;4.466;2024-03-23T12:41:38;8.90;1.40
19332;DHT22;9800;52.056;4.466;2024-03-23T12:44:04;10.70;99.90
19332;DHT22;9800;52.056;4.466;2024-03-23T12:46:30;10.50;99.90
19332;DHT22;9800;52.056;4.466;2024-03-23T12:48:58;9.80;99.90
19332;DHT22;9800;52.056;4.466;2024-03-23T12:51:25;9.30;99.90
19332;DHT22;9800;52.056;4.466;2024-03-23T12:53:51;8.70;99.90
19332;DHT22;9800;52.056;4.466;2024-03-23T12:56:17;8.20;99.90
19332;DHT22;9800;52.056;4.466;2024-03-23T12:58:43;8.00;99.90
19332;DHT22;9800;52.056;4.466;2024-03-23T13:01:08;8.10;99.90
19332;DHT22;9800;52.056;4.466;2024-03-23T13:03:34;9.00;99.90
19332;DHT22;9800;52.056;4.466;2024-03-23T13:06:05;10.10;99.90
19332;DHT22;9800;52.056;4.466;2024-03-23T13:08:31;11.70;99.90
19332;DHT22;9800;52.056;4.466;2024-03-23T13:10:57;13.30;99.90
19332;DHT22;9800;52.056;4.466;2024-03-23T13:13:23;13.80;99.90
19332;DHT22;9800;52.056;4.466;2024-03-23T13:15:49;12.80;99.90
19332;DHT22;9800;52.056;4.466;2024-03-23T13:18:15;12.30;99.90
19332;DHT22;9800;52.056;4.466;2024-03-23T13:20:41;12.10;95.50
19332;DHT22;9800;52.056;4.466;2024-03-23T13:23:10;11.90;76.50
19332;DHT22;9800;52.056;4.466;2024-03-23T13:25:36;12.40;83.90
19332;DHT22;9800;52.056;4.466;2024-03-23T13:28:03;13.30;68.60
19332;DHT22;9800;52.056;4.466;2024-03-23T13:30:29;13.90;62.80
19332;DHT22;9800;52.056;4.466;2024-03-23T13:32:55;14.40;61.90
19332;DHT22;9800;52.056;4.466;2024-03-23T13:35:21;14.60;43.00
19332;DHT22;9800;52.056;4.466;2024-03-23T13:37:47;14.40;40.70
19332;DHT22;9800;52.056;4.466;2024-03-23T13:40:16;15.50;38.50
19332;DHT22;9800;52.056;4.466;2024-03-23T13:42:42;15.30;40.30
19332;DHT22;9800;52.056;4.466;2024-03-23T13:45:08;15.40;29.30
19332;DHT22;9800;52.056;4.466;2024-03-23T13:47:35;14.10;34.80
19332;DHT22;9800;52.056;4.466;2024-03-23T13:50:01;13.00;41.60
19332;DHT22;9800;52.056;4.466;2024-03-23T13:52:27;12.00;55.60
19332;DHT22;9800;52.056;4.466;2024-03-23T13:54:53;10.60;75.10
19332;DHT22;9800;52.056;4.466;2024-03-23T13:57:22;11.00;74.90
19332;DHT22;9800;52.056;4.466;2024-03-23T13:59:48;12.20;52.90
19332;DHT22;9800;52.056;4.466;2024-03-23T14:02:14;13.60;41.30
19332;DHT22;9800;52.056;4.466;2024-03-23T14:04:40;14.60;27.30
19332;DHT22;9800;52.056;4.466;2024-03-23T14:07:08;14.90;17.90
19332;DHT22;9800;52.056;4.466;2024-03-23T14:09:34;15.50;14.30
19332;DHT22;9800;52.056;4.466;2024-03-23T14:12:00;16.40;10.50
19332;DHT22;9800;52.056;4.466;2024-03-23T14:14:29;14.10;12.70
19332;DHT22;9800;52.056;4.466;2024-03-23T14:16:55;12.80;23.30
19332;DHT22;9800;52.056;4.466;2024-03-23T14:19:22;11.40;47.10
19332;DHT22;9800;52.056;4.466;2024-03-23T14:21:48;11.10;60.20
19332;DHT22;9800;52.056;4.466;2024-03-23T14:24:13;12.10;63.60
19332;DHT22;9800;52.056;4.466;2024-03-23T14:26:40;11.80;58.70
19332;DHT22;9800;52.056;4.466;2024-03-23T14:29:12;11.30;60.80
19332;DHT22;9800;52.056;4.466;2024-03-23T14:31:42;11.60;76.80
19332;DHT22;9800;52.056;4.466;2024-03-23T14:34:08;13.10;57.40
19332;DHT22;9800;52.056;4.466;2024-03-23T14:36:34;13.60;48.40
19332;DHT22;9800;52.056;4.466;2024-03-23T14:39:00;13.20;46.00
19332;DHT22;9800;52.056;4.466;2024-03-23T14:41:26;12.40;47.50
19332;DHT22;9800;52.056;4.466;2024-03-23T14:43:52;12.30;43.70
19332;DHT22;9800;52.056;4.466;2024-03-23T14:46:18;12.10;46.30
19332;DHT22;9800;52.056;4.466;2024-03-23T14:48:46;12.00;43.60
19332;DHT22;9800;52.056;4.466;2024-03-23T14:51:12;11.80;45.30
19332;DHT22;9800;52.056;4.466;2024-03-23T14:53:39;11.70;45.40
19332;DHT22;9800;52.056;4.466;2024-03-23T14:56:06;11.90;39.10
19332;DHT22;9800;52.056;4.466;2024-03-23T14:58:32;12.60;30.60
19332;DHT22;9800;52.056;4.466;2024-03-23T15:01:04;12.70;28.80
19332;DHT22;9800;52.056;4.466;2024-03-23T15:03:31;12.20;29.60
19332;DHT22;9800;52.056;4.466;2024-03-23T15:05:59;11.90;33.20
19332;DHT22;9800;52.056;4.466;2024-03-23T15:08:26;12.00;33.40
19332;DHT22;9800;52.056;4.466;2024-03-23T15:10:52;12.80;32.10
19332;DHT22;9800;52.056;4.466;2024-03-23T15:13:20;13.40;26.10
19332;DHT22;9800;52.056;4.466;2024-03-23T15:15:46;13.10;23.60
19332;DHT22;9800;52.056;4.466;2024-03-23T15:18:12;13.20;29.00
19332;DHT22;9800;52.056;4.466;2024-03-23T15:20:38;13.00;28.10
19332;DHT22;9800;52.056;4.466;2024-03-23T15:23:07;13.40;28.70
19332;DHT22;9800;52.056;4.466;2024-03-23T15:25:33;14.60;23.70
19332;DHT22;9800;52.056;4.466;2024-03-23T15:27:59;15.10;16.20
19332;DHT22;9800;52.056;4.466;2024-03-23T15:30:25;14.80;12.70
19332;DHT22;9800;52.056;4.466;2024-03-23T15:32:51;14.40;13.30
19332;DHT22;9800;52.056;4.466;2024-03-23T15:35:17;14.50;13.50
19332;DHT22;9800;52.056;4.466;2024-03-23T15:37:43;14.50;13.30
19332;DHT22;9800;52.056;4.466;2024-03-23T15:40:13;13.70;13.20
19332;DHT22;9800;52.056;4.466;2024-03-23T15:42:40;14.00;13.50
19332;DHT22;9800;52.056;4.466;2024-03-23T15:45:06;14.80;12.70
19332;DHT22;9800;52.056;4.466;2024-03-23T15:47:33;15.30;8.70
19332;DHT22;9800;52.056;4.466;2024-03-23T15:50:00;15.60;7.00
19332;DHT22;9800;52.056;4.466;2024-03-23T15:52:26;15.70;2.00
19332;DHT22;9800;52.056;4.466;2024-03-23T15:54:52;14.80;1.00
19332;DHT22;9800;52.056;4.466;2024-03-23T15:57:20;14.10;2.20
19332;DHT22;9800;52.056;4.466;2024-03-23T15:59:46;13.00;7.40
19332;DHT22;9800;52.056;4.466;2024-03-23T16:02:12;13.10;17.00
19332;DHT22;9800;52.056;4.466;2024-03-23T16:04:40;13.00;17.00
19332;DHT22;9800;52.056;4.466;2024-03-23T16:07:07;13.10;17.60
19332;DHT22;9800;52.056;4.466;2024-03-23T16:09:32;13.20;15.00
19332;DHT22;9800;52.056;4.466;2024-03-23T16:11:58;13.30;12.00
19332;DHT22;9800;52.056;4.466;2024-03-23T16:14:27;12.90;14.50
19332;DHT22;9800;52.056;4.466;2024-03-23T16:16:56;11.90;17.80
19332;DHT22;9800;52.056;4.466;2024-03-23T16:19:22;11.20;28.00
19332;DHT22;9800;52.056;4.466;2024-03-23T16:21:48;10.60;34.30
19332;DHT22;9800;52.056;4.466;2024-03-23T16:24:20;10.30;43.60
19332;DHT22;9800;52.056;4.466;2024-03-23T16:26:46;10.10;55.60
19332;DHT22;9800;52.056;4.466;2024-03-23T16:29:13;9.90;63.10
19332;DHT22;9800;52.056;4.466;2024-03-23T16:31:41;9.80;80.70
19332;DHT22;9800;52.056;4.466;2024-03-23T16:34:10;9.70;81.40
19332;DHT22;9800;52.056;4.466;2024-03-23T16:36:36;9.30;79.40
19332;DHT22;9800;52.056;4.466;2024-03-23T16:39:03;9.10;99.90
19332;DHT22;9800;52.056;4.466;2024-03-23T16:41:29;8.70;99.90
19332;DHT22;9800;52.056;4.466;2024-03-23T16:43:55;8.60;99.90
19332;DHT22;9800;52.056;4.466;2024-03-23T16:46:21;8.60;99.90
19332;DHT22;9800;52.056;4.466;2024-03-23T16:48:49;8.60;99.90
19332;DHT22;9800;52.056;4.466;2024-03-23T16:51:15;8.40;99.90
19332;DHT22;9800;52.056;4.466;2024-03-23T16:53:41;8.20;99.90
19332;DHT22;9800;52.056;4.466;2024-03-23T16:56:08;8.00;99.90
19332;DHT22;9800;52.056;4.466;2024-03-23T16:58:34;7.70;99.90
19332;DHT22;9800;52.056;4.466;2024-03-23T17:01:02;7.60;99.90
19332;DHT22;9800;52.056;4.466;2024-03-23T17:03:28;7.40;99.90
19332;DHT22;9800;52.056;4.466;2024-03-23T17:05:57;7.20;99.90
19332;DHT22;9800;52.056;4.466;2024-03-23T17:08:23;7.50;99.90
19332;DHT22;9800;52.056;4.466;2024-03-23T17:10:48;8.20;99.90
19332;DHT22;9800;52.056;4.466;2024-03-23T17:13:15;8.70;99.90
19332;DHT22;9800;52.056;4.466;2024-03-23T17:15:44;8.70;99.90
19332;DHT22;9800;52.056;4.466;2024-03-23T17:18:10;8.70;99.90
19332;DHT22;9800;52.056;4.466;2024-03-23T17:20:37;8.50;99.90
19332;DHT22;9800;52.056;4.466;2024-03-23T17:23:06;8.20;99.90
19332;DHT22;9800;52.056;4.466;2024-03-23T17:25:32;8.00;99.90
19332;DHT22;9800;52.056;4.466;2024-03-23T17:27:57;7.80;99.90
19332;DHT22;9800;52.056;4.466;2024-03-23T17:30:23;7.60;99.90
19332;DHT22;9800;52.056;4.466;2024-03-23T17:32:49;7.50;99.90
19332;DHT22;9800;52.056;4.466;2024-03-23T17:35:15;7.40;99.90
19332;DHT22;9800;52.056;4.466;2024-03-23T17:37:41;7.30;99.90
19332;DHT22;9800;52.056;4.466;2024-03-23T17:40:10;7.30;99.90
19332;DHT22;9800;52.056;4.466;2024-03-23T17:42:37;7.30;99.90
19332;DHT22;9800;52.056;4.466;2024-03-23T17:45:03;7.30;99.90
19332;DHT22;9800;52.056;4.466;2024-03-23T17:47:34;7.60;99.90
19332;DHT22;9800;52.056;4.466;2024-03-23T17:50:00;7.70;99.90
19332;DHT22;9800;52.056;4.466;2024-03-23T17:52:26;7.80;99.90
19332;DHT22;9800;52.056;4.466;2024-03-23T17:54:54;7.80;99.90
19332;DHT22;9800;52.056;4.466;2024-03-23T17:57:23;7.80;99.90
19332;DHT22;9800;52.056;4.466;2024-03-23T17:59:49;7.80;99.90
19332;DHT22;9800;52.056;4.466;2024-03-23T18:02:15;7.80;99.90
19332;DHT22;9800;52.056;4.466;2024-03-23T18:04:43;7.70;99.90
19332;DHT22;9800;52.056;4.466;2024-03-23T18:07:09;7.70;99.90
19332;DHT22;9800;52.056;4.466;2024-03-23T18:09:35;7.60;99.90
19332;DHT22;9800;52.056;4.466;2024-03-23T18:12:02;7.60;99.90
19332;DHT22;9800;52.056;4.466;2024-03-23T18:14:30;7.50;99.90
19332;DHT22;9800;52.056;4.466;2024-03-23T18:16:56;7.30;99.90
19332;DHT22;9800;52.056;4.466;2024-03-23T18:19:22;7.30;99.90
19332;DHT22;9800;52.056;4.466;2024-03-23T18:21:48;7.20;99.90
19332;DHT22;9800;52.056;4.466;2024-03-23T18:24:14;6.90;99.90
19332;DHT22;9800;52.056;4.466;2024-03-23T18:26:40;6.80;99.90
19332;DHT22;9800;52.056;4.466;2024-03-23T18:29:06;6.60;99.90
19332;DHT22;9800;52.056;4.466;2024-03-23T18:31:34;6.40;99.90
19332;DHT22;9800;52.056;4.466;2024-03-23T18:34:00;6.40;99.90
19332;DHT22;9800;52.056;4.466;2024-03-23T18:36:26;6.10;99.90
19332;DHT22;9800;52.056;4.466;2024-03-23T18:38:52;6.00;99.90
19332;DHT22;9800;52.056;4.466;2024-03-23T18:41:19;6.10;99.90
19332;DHT22;9800;52.056;4.466;2024-03-23T18:43:45;6.20;99.90
19332;DHT22;9800;52.056;4.466;2024-03-23T18:46:11;6.30;99.90
19332;DHT22;9800;52.056;4.466;2024-03-23T18:48:40;6.50;99.90
19332;DHT22;9800;52.056;4.466;2024-03-23T18:51:06;6.70;99.90
19332;DHT22;9800;52.056;4.466;2024-03-23T18:53:32;6.80;99.90
19332;DHT22;9800;52.056;4.466;2024-03-23T18:55:58;6.90;99.90
19332;DHT22;9800;52.056;4.466;2024-03-23T18:58:24;6.90;99.90
19332;DHT22;9800;52.056;4.466;2024-03-23T19:00:54;6.70;99.90
19332;DHT22;9800;52.056;4.466;2024-03-23T19:03:21;6.40;99.90
19332;DHT22;9800;52.056;4.466;2024-03-23T19:05:53;6.30;99.90
19332;DHT22;9800;52.056;4.466;2024-03-23T19:08:19;6.30;99.90
19332;DHT22;9800;52.056;4.466;2024-03-23T19:10:52;6.20;99.90
19332;DHT22;9800;52.056;4.466;2024-03-23T19:13:18;6.10;99.90
19332;DHT22;9800;52.056;4.466;2024-03-23T19:15:44;5.90;99.90
19332;DHT22;9800;52.056;4.466;2024-03-23T19:18:10;5.70;99.90
19332;DHT22;9800;52.056;4.466;2024-03-23T19:20:36;5.90;99.90
19332;DHT22;9800;52.056;4.466;2024-03-23T19:23:05;5.70;99.90
19332;DHT22;9800;52.056;4.466;2024-03-23T19:25:31;5.60;99.90
19332;DHT22;9800;52.056;4.466;2024-03-23T19:27:58;5.60;99.90
19332;DHT22;9800;52.056;4.466;2024-03-23T19:30:24;5.60;99.90
19332;DHT22;9800;52.056;4.466;2024-03-23T19:32:50;5.70;99.90
19332;DHT22;9800;52.056;4.466;2024-03-23T19:35:17;5.80;99.90
19332;DHT22;9800;52.056;4.466;2024-03-23T19:37:43;5.90;99.90
19332;DHT22;9800;52.056;4.466;2024-03-23T19:40:15;6.10;99.90
19332;DHT22;9800;52.056;4.466;2024-03-23T19:42:41;6.20;99.90
19332;DHT22;9800;52.056;4.466;2024-03-23T19:45:07;6.20;99.90
19332;DHT22;9800;52.056;4.466;2024-03-23T19:47:33;6.10;99.90
19332;DHT22;9800;52.056;4.466;2024-03-23T19:49:59;6.20;99.90
19332;DHT22;9800;52.056;4.466;2024-03-23T19:52:25;6.10;99.90
19332;DHT22;9800;52.056;4.466;2024-03-23T19:54:51;6.10;99.90
19332;DHT22;9800;52.056;4.466;2024-03-23T19:57:20;5.90;99.90
19332;DHT22;9800;52.056;4.466;2024-03-23T19:59:46;5.70;99.90
19332;DHT22;9800;52.056;4.466;2024-03-23T20:02:12;5.60;99.90
19332;DHT22;9800;52.056;4.466;2024-03-23T20:04:37;5.70;99.90
19332;DHT22;9800;52.056;4.466;2024-03-23T20:07:03;5.70;99.90
19332;DHT22;9800;52.056;4.466;2024-03-23T20:09:29;5.60;99.90
19332;DHT22;9800;52.056;4.466;2024-03-23T20:11:55;5.70;99.90
19332;DHT22;9800;52.056;4.466;2024-03-23T20:14:26;5.70;99.90
19332;DHT22;9800;52.056;4.466;2024-03-23T20:16:53;5.80;99.90
19332;DHT22;9800;52.056;4.466;2024-03-23T20:19:19;5.70;99.90
19332;DHT22;9800;52.056;4.466;2024-03-23T20:21:46;5.50;99.90
19332;DHT22;9800;52.056;4.466;2024-03-23T20:24:11;5.50;99.90
19332;DHT22;9800;52.056;4.466;2024-03-23T20:26:38;5.50;99.90
19332;DHT22;9800;52.056;4.466;2024-03-23T20:29:04;5.30;99.90
19332;DHT22;9800;52.056;4.466;2024-03-23T20:31:32;5.50;99.90
19332;DHT22;9800;52.056;4.466;2024-03-23T20:33:58;5.50;99.90
19332;DHT22;9800;52.056;4.466;2024-03-23T20:36:24;5.30;99.90
19332;DHT22;9800;52.056;4.466;2024-03-23T20:38:50;5.40;99.90
19332;DHT22;9800;52.056;4.466;2024-03-23T20:41:16;5.50;99.90
19332;DHT22;9800;52.056;4.466;2024-03-23T20:43:42;5.50;99.90
19332;DHT22;9800;52.056;4.466;2024-03-23T20:46:10;5.50;99.90
19332;DHT22;9800;52.056;4.466;2024-03-23T20:48:39;5.40;99.90
19332;DHT22;9800;52.056;4.466;2024-03-23T20:51:06;5.60;99.90
19332;DHT22;9800;52.056;4.466;2024-03-23T20:53:32;5.60;99.90
19332;DHT22;9800;52.056;4.466;2024-03-23T20:55:59;5.70;99.90
19332;DHT22;9800;52.056;4.466;2024-03-23T20:58:25;5.60;99.90
19332;DHT22;9800;52.056;4.466;2024-03-23T21:00:51;5.50;99.90
19332;DHT22;9800;52.056;4.466;2024-03-23T21:03:17;5.50;99.90
19332;DHT22;9800;52.056;4.466;2024-03-23T21:05:46;5.40;99.90
19332;DHT22;9800;52.056;4.466;2024-03-23T21:08:12;5.30;99.90
19332;DHT22;9800;52.056;4.466;2024-03-23T21:10:38;5.40;99.90
19332;DHT22;9800;52.056;4.466;2024-03-23T21:13:04;5.30;99.90
19332;DHT22;9800;52.056;4.466;2024-03-23T21:15:30;5.50;99.90
19332;DHT22;9800;52.056;4.466;2024-03-23T21:17:56;5.50;99.90
19332;DHT22;9800;52.056;4.466;2024-03-23T21:20:23;5.40;99.90
19332;DHT22;9800;52.056;4.466;2024-03-23T21:22:52;5.50;99.90
19332;DHT22;9800;52.056;4.466;2024-03-23T21:25:18;5.80;99.90
19332;DHT22;9800;52.056;4.466;2024-03-23T21:27:44;6.00;99.90
19332;DHT22;9800;52.056;4.466;2024-03-23T21:30:10;6.00;99.90
19332;DHT22;9800;52.056;4.466;2024-03-23T21:32:36;6.10;99.90
19332;DHT22;9800;52.056;4.466;2024-03-23T21:35:04;6.20;99.90
19332;DHT22;9800;52.056;4.466;2024-03-23T21:37:30;6.40;99.90
19332;DHT22;9800;52.056;4.466;2024-03-23T21:39:59;6.50;99.90
19332;DHT22;9800;52.056;4.466;2024-03-23T21:42:25;6.50;99.90
19332;DHT22;9800;52.056;4.466;2024-03-23T21:44:51;6.40;99.90
19332;DHT22;9800;52.056;4.466;2024-03-23T21:47:17;6.30;99.90
19332;DHT22;9800;52.056;4.466;2024-03-23T21:49:43;6.50;99.90
19332;DHT22;9800;52.056;4.466;2024-03-23T21:52:09;6.70;99.90
19332;DHT22;9800;52.056;4.466;2024-03-23T21:54:35;6.70;99.90
19332;DHT22;9800;52.056;4.466;2024-03-23T21:57:04;6.80;99.90
19332;DHT22;9800;52.056;4.466;2024-03-23T21:59:30;7.00;99.90
19332;DHT22;9800;52.056;4.466;2024-03-23T22:01:56;7.00;99.90
19332;DHT22;9800;52.056;4.466;2024-03-23T22:04:22;7.10;99.90
19332;DHT22;9800;52.056;4.466;2024-03-23T22:06:47;7.10;99.90